Ganado, Texas
Current Conditions -  °F | °C
As of 10:15 AM on Thursday 23 Oct 2014 (Local Time) from KARM Reporting Station
Clear Clear  
Wind Chill: 69°   Ceiling: Unl
Heat Index: 69°   Visibility: 10mi
Dew Point: 58°   Wind: 5mph
Humidity: 70%   Direction: 50°NE
Pressure: 30.14"   Gusts: NA
Location:  29.04°N, 96.51°W
Report Text: KARM 231515Z AUTO 05004KT 10SM CLR 20/15 A3014 RMK AO2 T02030147
Loading
Personal Weather Stations






























Interactive Weather Map
Tropical Storm Tracking
New forecast layout! Learn more

10-Day Weather Forecast

Advertisements
Track Severe Weather on mobile